Quick Links (Output Below):   Max & Min Temps   /   Climate Reports   /   Zone Forecasts
River Forecasts   /   Forestry Forecasts   /   Aviation Forecasts   /   Radars   /   Features

Terminal Aerodrome Forecast (Little Rock)

Pick a Site:
Arkadelphia | El Dorado | Fayetteville | Fort Smith | Harrison | Highfill | Hot Springs | Jonesboro
Little Rock | Monticello | Mountain Home | Pine Bluff | Texarkana
 Forecast 

KLIT 252320Z 2600/2624 VRB04KT P6SM FEW250
     FM260800 16006KT P6SM SCT080 BKN120
     FM261800 29012G22KT P6SM SCT250=


 Latest METARs (Observations) 
How to Decode METARs
23Z KLIT 252253Z 33003KT 10SM FEW250 10/M08 A3017 RMK AO2 SLP221
         T01001083
         
22Z KLIT 252153Z 00000KT 10SM FEW250 13/M10 A3017 RMK AO2 SLP219
         T01281100
         
21Z KLIT 252053Z 33005KT 10SM FEW250 13/M11 A3017 RMK AO2 SLP219
         T01281106 56027
         
20Z KLIT 251953Z 34006KT 10SM SCT250 13/M11 A3017 RMK AO2 SLP221
         T01281106
         
19Z KLIT 251853Z VRB04KT 10SM SCT250 12/M08 A3021 RMK AO2 SLP232
         T01221078
         
18Z KLIT 251753Z 30009KT 10SM SCT250 12/M09 A3025 RMK AO2 SLP247
         T01171094 10117 21006 58013
         
17Z KLIT 251653Z 30007KT 10SM SCT250 10/M05 A3028 RMK AO2 SLP256
         T01001050
         
16Z KLIT 251553Z 31006KT 10SM SCT250 08/M03 A3029 RMK AO2 SLP261
         T00781033
         
15Z KLIT 251453Z 31007KT 10SM FEW250 05/M01 A3029 RMK AO2 SLP259
         T00501011 53030
         
14Z KLIT 251353Z 00000KT 10SM FEW250 02/M02 A3026 RMK AO2 SLP249
         T00171017
         
***** Today's Observations (Above) *****


Back to Main Page
http://www.srh.noaa.gov/lzk/qfcst.php

USA.gov is the U.S. government's official web portal to all federal, state and local government web resources and services.